Terminal Aerodrome Forecast
Issued by NWS

Home | Current Version | Previous Version | Text Only | Print | Product List | Glossary On
Versions: 1 2 3 4 5 6 7 8 9 10 11 12 13 14 15 16 17 18 19 20 21 22 23
000
FTPA31 PHFO 150500
TAFOGG
TAF
PHOG 150520Z 1506/1606 VRB05KT P6SM FEW045
     FM151000 15004KT P6SM FEW040
     FM152000 01011KT P6SM SCT045
     FM160500 01006KT P6SM FEW045
      AMD LTD TO WX VIS AND WIND 1509/1516=

USA.gov is the U.S. government's official web portal to all federal, state and local government web resources and services.